sensor_id;sensor_type;location;lat;lon;timestamp;temperature;humidity
44767;DHT22;30487;48.716;9.272;2024-03-08T00:00:27;5.70;99.90
44767;DHT22;30487;48.716;9.272;2024-03-08T00:02:52;5.70;99.90
44767;DHT22;30487;48.716;9.272;2024-03-08T00:05:19;5.60;99.90
44767;DHT22;30487;48.716;9.272;2024-03-08T00:07:45;5.60;99.90
44767;DHT22;30487;48.716;9.272;2024-03-08T00:10:12;5.60;99.90
44767;DHT22;30487;48.716;9.272;2024-03-08T00:12:43;5.60;99.90
44767;DHT22;30487;48.716;9.272;2024-03-08T00:15:13;5.60;99.90
44767;DHT22;30487;48.716;9.272;2024-03-08T00:17:40;5.50;99.90
44767;DHT22;30487;48.716;9.272;2024-03-08T00:20:06;5.50;99.90
44767;DHT22;30487;48.716;9.272;2024-03-08T00:22:37;5.50;99.90
44767;DHT22;30487;48.716;9.272;2024-03-08T00:25:04;5.50;99.90
44767;DHT22;30487;48.716;9.272;2024-03-08T00:27:30;5.50;99.90
44767;DHT22;30487;48.716;9.272;2024-03-08T00:29:59;5.50;99.90
44767;DHT22;30487;48.716;9.272;2024-03-08T00:32:24;5.50;99.90
44767;DHT22;30487;48.716;9.272;2024-03-08T00:34:50;5.40;99.90
44767;DHT22;30487;48.716;9.272;2024-03-08T00:37:17;5.40;99.90
44767;DHT22;30487;48.716;9.272;2024-03-08T00:39:43;5.40;99.90
44767;DHT22;30487;48.716;9.272;2024-03-08T00:42:08;5.40;99.90
44767;DHT22;30487;48.716;9.272;2024-03-08T00:44:34;5.40;99.90
44767;DHT22;30487;48.716;9.272;2024-03-08T00:47:00;5.40;99.90
44767;DHT22;30487;48.716;9.272;2024-03-08T00:49:25;5.30;99.90
44767;DHT22;30487;48.716;9.272;2024-03-08T00:51:51;5.30;99.90
44767;DHT22;30487;48.716;9.272;2024-03-08T00:54:16;5.30;99.90
44767;DHT22;30487;48.716;9.272;2024-03-08T00:56:42;5.30;99.90
44767;DHT22;30487;48.716;9.272;2024-03-08T00:59:08;5.30;99.90
44767;DHT22;30487;48.716;9.272;2024-03-08T01:01:33;5.30;99.90
44767;DHT22;30487;48.716;9.272;2024-03-08T01:03:59;5.30;99.90
44767;DHT22;30487;48.716;9.272;2024-03-08T01:06:25;5.30;99.90
44767;DHT22;30487;48.716;9.272;2024-03-08T01:08:50;5.20;99.90
44767;DHT22;30487;48.716;9.272;2024-03-08T01:11:18;5.20;99.90
44767;DHT22;30487;48.716;9.272;2024-03-08T01:13:44;5.20;99.90
44767;DHT22;30487;48.716;9.272;2024-03-08T01:16:12;5.20;99.90
44767;DHT22;30487;48.716;9.272;2024-03-08T01:18:38;5.20;99.90
44767;DHT22;30487;48.716;9.272;2024-03-08T01:21:04;5.20;99.90
44767;DHT22;30487;48.716;9.272;2024-03-08T01:23:29;5.20;99.90
44767;DHT22;30487;48.716;9.272;2024-03-08T01:25:55;5.20;99.90
44767;DHT22;30487;48.716;9.272;2024-03-08T01:28:26;5.10;99.90
44767;DHT22;30487;48.716;9.272;2024-03-08T01:30:52;5.10;99.90
44767;DHT22;30487;48.716;9.272;2024-03-08T01:33:22;5.10;99.90
44767;DHT22;30487;48.716;9.272;2024-03-08T01:35:48;5.10;99.90
44767;DHT22;30487;48.716;9.272;2024-03-08T01:38:14;5.00;99.90
44767;DHT22;30487;48.716;9.272;2024-03-08T01:40:39;5.00;99.90
44767;DHT22;30487;48.716;9.272;2024-03-08T01:45:43;5.00;99.90
44767;DHT22;30487;48.716;9.272;2024-03-08T01:48:08;5.10;99.90
44767;DHT22;30487;48.716;9.272;2024-03-08T01:50:34;5.00;99.90
44767;DHT22;30487;48.716;9.272;2024-03-08T01:53:02;5.00;99.90
44767;DHT22;30487;48.716;9.272;2024-03-08T01:55:28;5.00;99.90
44767;DHT22;30487;48.716;9.272;2024-03-08T01:57:53;4.90;99.90
44767;DHT22;30487;48.716;9.272;2024-03-08T02:00:20;4.90;99.90
44767;DHT22;30487;48.716;9.272;2024-03-08T02:02:46;4.90;99.90
44767;DHT22;30487;48.716;9.272;2024-03-08T02:05:13;4.90;99.90
44767;DHT22;30487;48.716;9.272;2024-03-08T02:07:41;4.90;99.90
44767;DHT22;30487;48.716;9.272;2024-03-08T02:10:09;4.90;99.90
44767;DHT22;30487;48.716;9.272;2024-03-08T02:12:35;4.90;99.90
44767;DHT22;30487;48.716;9.272;2024-03-08T02:15:01;4.80;99.90
44767;DHT22;30487;48.716;9.272;2024-03-08T02:17:28;4.80;99.90
44767;DHT22;30487;48.716;9.272;2024-03-08T02:19:53;4.80;99.90
44767;DHT22;30487;48.716;9.272;2024-03-08T02:22:19;4.80;99.90
44767;DHT22;30487;48.716;9.272;2024-03-08T02:24:45;4.80;99.90
44767;DHT22;30487;48.716;9.272;2024-03-08T02:27:11;4.70;99.90
44767;DHT22;30487;48.716;9.272;2024-03-08T02:29:37;4.70;99.90
44767;DHT22;30487;48.716;9.272;2024-03-08T02:32:06;4.70;99.90
44767;DHT22;30487;48.716;9.272;2024-03-08T02:34:31;4.70;99.90
44767;DHT22;30487;48.716;9.272;2024-03-08T02:36:57;4.70;99.90
44767;DHT22;30487;48.716;9.272;2024-03-08T02:39:23;4.70;99.90
44767;DHT22;30487;48.716;9.272;2024-03-08T02:41:48;4.70;99.90
44767;DHT22;30487;48.716;9.272;2024-03-08T02:44:14;4.70;99.90
44767;DHT22;30487;48.716;9.272;2024-03-08T02:46:40;4.70;99.90
44767;DHT22;30487;48.716;9.272;2024-03-08T02:49:06;4.60;99.90
44767;DHT22;30487;48.716;9.272;2024-03-08T02:51:33;4.60;99.90
44767;DHT22;30487;48.716;9.272;2024-03-08T02:54:00;4.60;99.90
44767;DHT22;30487;48.716;9.272;2024-03-08T02:56:26;4.60;99.90
44767;DHT22;30487;48.716;9.272;2024-03-08T02:58:52;4.60;99.90
44767;DHT22;30487;48.716;9.272;2024-03-08T03:01:17;4.60;99.90
44767;DHT22;30487;48.716;9.272;2024-03-08T03:03:45;4.50;99.90
44767;DHT22;30487;48.716;9.272;2024-03-08T03:06:12;4.50;99.90
44767;DHT22;30487;48.716;9.272;2024-03-08T03:08:38;4.50;99.90
44767;DHT22;30487;48.716;9.272;2024-03-08T03:11:04;4.50;99.90
44767;DHT22;30487;48.716;9.272;2024-03-08T03:13:29;4.50;99.90
44767;DHT22;30487;48.716;9.272;2024-03-08T03:15:55;4.50;99.90
44767;DHT22;30487;48.716;9.272;2024-03-08T03:18:23;4.50;99.90
44767;DHT22;30487;48.716;9.272;2024-03-08T03:20:49;4.50;99.90
44767;DHT22;30487;48.716;9.272;2024-03-08T03:23:14;4.50;99.90
44767;DHT22;30487;48.716;9.272;2024-03-08T03:25:46;4.50;99.90
44767;DHT22;30487;48.716;9.272;2024-03-08T03:28:11;4.40;99.90
44767;DHT22;30487;48.716;9.272;2024-03-08T03:30:40;4.40;99.90
44767;DHT22;30487;48.716;9.272;2024-03-08T03:33:05;4.40;99.90
44767;DHT22;30487;48.716;9.272;2024-03-08T03:35:32;4.40;99.90
44767;DHT22;30487;48.716;9.272;2024-03-08T03:37:58;4.40;99.90
44767;DHT22;30487;48.716;9.272;2024-03-08T03:40:31;4.40;99.90
44767;DHT22;30487;48.716;9.272;2024-03-08T03:42:56;4.40;99.90
44767;DHT22;30487;48.716;9.272;2024-03-08T03:45:23;4.30;99.90
44767;DHT22;30487;48.716;9.272;2024-03-08T03:47:49;4.40;99.90
44767;DHT22;30487;48.716;9.272;2024-03-08T03:50:14;4.30;99.90
44767;DHT22;30487;48.716;9.272;2024-03-08T03:52:40;4.30;99.90
44767;DHT22;30487;48.716;9.272;2024-03-08T03:55:08;4.30;99.90
44767;DHT22;30487;48.716;9.272;2024-03-08T03:57:33;4.30;99.90
44767;DHT22;30487;48.716;9.272;2024-03-08T03:59:59;4.30;99.90
44767;DHT22;30487;48.716;9.272;2024-03-08T04:02:25;4.30;99.90
44767;DHT22;30487;48.716;9.272;2024-03-08T04:04:52;4.20;99.90
44767;DHT22;30487;48.716;9.272;2024-03-08T04:07:18;4.20;99.90
44767;DHT22;30487;48.716;9.272;2024-03-08T04:09:43;4.20;99.90
44767;DHT22;30487;48.716;9.272;2024-03-08T04:12:09;4.20;99.90
44767;DHT22;30487;48.716;9.272;2024-03-08T04:14:35;4.20;99.90
44767;DHT22;30487;48.716;9.272;2024-03-08T04:17:01;4.20;99.90
44767;DHT22;30487;48.716;9.272;2024-03-08T04:19:27;4.20;99.90
44767;DHT22;30487;48.716;9.272;2024-03-08T04:21:53;4.20;99.90
44767;DHT22;30487;48.716;9.272;2024-03-08T04:24:19;4.10;99.90
44767;DHT22;30487;48.716;9.272;2024-03-08T04:26:46;4.10;99.90
44767;DHT22;30487;48.716;9.272;2024-03-08T04:29:11;4.10;99.90
44767;DHT22;30487;48.716;9.272;2024-03-08T04:31:40;4.10;99.90
44767;DHT22;30487;48.716;9.272;2024-03-08T04:34:05;4.10;99.90
44767;DHT22;30487;48.716;9.272;2024-03-08T04:36:31;4.10;99.90
44767;DHT22;30487;48.716;9.272;2024-03-08T04:38:57;4.10;99.90
44767;DHT22;30487;48.716;9.272;2024-03-08T04:41:22;4.00;99.90
44767;DHT22;30487;48.716;9.272;2024-03-08T04:43:49;4.00;99.90
44767;DHT22;30487;48.716;9.272;2024-03-08T04:46:14;4.10;99.90
44767;DHT22;30487;48.716;9.272;2024-03-08T04:48:41;4.00;99.90
44767;DHT22;30487;48.716;9.272;2024-03-08T04:51:08;4.00;99.90
44767;DHT22;30487;48.716;9.272;2024-03-08T04:53:33;4.00;99.90
44767;DHT22;30487;48.716;9.272;2024-03-08T04:55:59;4.00;99.90
44767;DHT22;30487;48.716;9.272;2024-03-08T04:58:25;4.00;99.90
44767;DHT22;30487;48.716;9.272;2024-03-08T05:00:51;4.00;99.90
44767;DHT22;30487;48.716;9.272;2024-03-08T05:03:16;4.00;99.90
44767;DHT22;30487;48.716;9.272;2024-03-08T05:05:42;4.00;99.90
44767;DHT22;30487;48.716;9.272;2024-03-08T05:08:08;3.90;99.90
44767;DHT22;30487;48.716;9.272;2024-03-08T05:10:33;3.90;99.90
44767;DHT22;30487;48.716;9.272;2024-03-08T05:12:59;3.90;99.90
44767;DHT22;30487;48.716;9.272;2024-03-08T05:15:24;3.90;99.90
44767;DHT22;30487;48.716;9.272;2024-03-08T05:17:50;3.90;99.90
44767;DHT22;30487;48.716;9.272;2024-03-08T05:20:15;3.90;99.90
44767;DHT22;30487;48.716;9.272;2024-03-08T05:22:42;3.90;99.90
44767;DHT22;30487;48.716;9.272;2024-03-08T05:25:08;3.90;99.90
44767;DHT22;30487;48.716;9.272;2024-03-08T05:27:35;3.90;99.90
44767;DHT22;30487;48.716;9.272;2024-03-08T05:30:02;3.90;99.90
44767;DHT22;30487;48.716;9.272;2024-03-08T05:32:29;3.90;99.90
44767;DHT22;30487;48.716;9.272;2024-03-08T05:34:55;3.90;99.90
44767;DHT22;30487;48.716;9.272;2024-03-08T05:37:20;3.90;99.90
44767;DHT22;30487;48.716;9.272;2024-03-08T05:39:46;3.90;99.90
44767;DHT22;30487;48.716;9.272;2024-03-08T05:42:11;3.90;99.90
44767;DHT22;30487;48.716;9.272;2024-03-08T05:44:37;3.90;99.90
44767;DHT22;30487;48.716;9.272;2024-03-08T05:47:02;3.80;99.90
44767;DHT22;30487;48.716;9.272;2024-03-08T05:49:28;3.80;99.90
44767;DHT22;30487;48.716;9.272;2024-03-08T05:51:54;3.90;99.90
44767;DHT22;30487;48.716;9.272;2024-03-08T05:54:19;3.80;99.90
44767;DHT22;30487;48.716;9.272;2024-03-08T05:56:47;3.80;99.90
44767;DHT22;30487;48.716;9.272;2024-03-08T05:59:13;3.80;99.90
44767;DHT22;30487;48.716;9.272;2024-03-08T06:01:38;3.80;99.90
44767;DHT22;30487;48.716;9.272;2024-03-08T06:04:06;3.80;99.90
44767;DHT22;30487;48.716;9.272;2024-03-08T06:06:32;3.80;99.90
44767;DHT22;30487;48.716;9.272;2024-03-08T06:08:58;3.90;99.90
44767;DHT22;30487;48.716;9.272;2024-03-08T06:11:34;3.90;99.90
44767;DHT22;30487;48.716;9.272;2024-03-08T06:13:59;3.90;99.90
44767;DHT22;30487;48.716;9.272;2024-03-08T06:16:28;3.90;99.90
44767;DHT22;30487;48.716;9.272;2024-03-08T06:18:58;3.90;99.90
44767;DHT22;30487;48.716;9.272;2024-03-08T06:21:24;4.00;99.90
44767;DHT22;30487;48.716;9.272;2024-03-08T06:23:54;4.00;99.90
44767;DHT22;30487;48.716;9.272;2024-03-08T06:26:21;4.00;99.90
44767;DHT22;30487;48.716;9.272;2024-03-08T06:28:47;4.00;99.90
44767;DHT22;30487;48.716;9.272;2024-03-08T06:31:13;4.00;99.90
44767;DHT22;30487;48.716;9.272;2024-03-08T06:33:40;4.10;99.90
44767;DHT22;30487;48.716;9.272;2024-03-08T06:36:05;4.10;99.90
44767;DHT22;30487;48.716;9.272;2024-03-08T06:38:31;4.10;99.90
44767;DHT22;30487;48.716;9.272;2024-03-08T06:40:56;4.10;99.90
44767;DHT22;30487;48.716;9.272;2024-03-08T06:43:22;4.20;99.90
44767;DHT22;30487;48.716;9.272;2024-03-08T06:45:50;4.30;99.90
44767;DHT22;30487;48.716;9.272;2024-03-08T06:48:17;4.40;99.90
44767;DHT22;30487;48.716;9.272;2024-03-08T06:50:46;4.50;99.90
44767;DHT22;30487;48.716;9.272;2024-03-08T06:53:13;4.60;99.90
44767;DHT22;30487;48.716;9.272;2024-03-08T06:55:39;4.60;99.90
44767;DHT22;30487;48.716;9.272;2024-03-08T06:58:05;4.70;99.90
44767;DHT22;30487;48.716;9.272;2024-03-08T07:00:32;4.70;99.90
44767;DHT22;30487;48.716;9.272;2024-03-08T07:02:58;4.70;99.90
44767;DHT22;30487;48.716;9.272;2024-03-08T07:05:27;4.70;99.90
44767;DHT22;30487;48.716;9.272;2024-03-08T07:07:52;4.80;99.90
44767;DHT22;30487;48.716;9.272;2024-03-08T07:10:22;4.80;99.90
44767;DHT22;30487;48.716;9.272;2024-03-08T07:12:51;4.90;99.90
44767;DHT22;30487;48.716;9.272;2024-03-08T07:15:18;4.90;99.90
44767;DHT22;30487;48.716;9.272;2024-03-08T07:17:45;4.90;99.90
44767;DHT22;30487;48.716;9.272;2024-03-08T07:20:13;4.90;99.90
44767;DHT22;30487;48.716;9.272;2024-03-08T07:22:39;4.90;99.90
44767;DHT22;30487;48.716;9.272;2024-03-08T07:25:05;5.00;99.90
44767;DHT22;30487;48.716;9.272;2024-03-08T07:27:53;5.10;99.90
44767;DHT22;30487;48.716;9.272;2024-03-08T07:30:25;5.10;99.90
44767;DHT22;30487;48.716;9.272;2024-03-08T07:33:10;5.10;99.90
44767;DHT22;30487;48.716;9.272;2024-03-08T07:35:39;5.20;99.90
44767;DHT22;30487;48.716;9.272;2024-03-08T07:38:07;5.20;99.90
44767;DHT22;30487;48.716;9.272;2024-03-08T07:40:37;5.20;99.90
44767;DHT22;30487;48.716;9.272;2024-03-08T07:43:07;5.20;99.90
44767;DHT22;30487;48.716;9.272;2024-03-08T07:45:32;5.20;99.90
44767;DHT22;30487;48.716;9.272;2024-03-08T07:47:58;5.30;99.90
44767;DHT22;30487;48.716;9.272;2024-03-08T07:50:24;5.30;99.90
44767;DHT22;30487;48.716;9.272;2024-03-08T07:52:49;5.30;99.90
44767;DHT22;30487;48.716;9.272;2024-03-08T07:55:15;5.30;99.90
44767;DHT22;30487;48.716;9.272;2024-03-08T07:57:41;5.40;99.90
44767;DHT22;30487;48.716;9.272;2024-03-08T08:00:08;5.50;99.90
44767;DHT22;30487;48.716;9.272;2024-03-08T08:02:34;5.50;99.90
44767;DHT22;30487;48.716;9.272;2024-03-08T08:05:01;5.50;99.90
44767;DHT22;30487;48.716;9.272;2024-03-08T08:07:26;5.50;99.90
44767;DHT22;30487;48.716;9.272;2024-03-08T08:09:53;5.50;99.90
44767;DHT22;30487;48.716;9.272;2024-03-08T08:12:18;5.50;99.90
44767;DHT22;30487;48.716;9.272;2024-03-08T08:14:44;5.60;99.90
44767;DHT22;30487;48.716;9.272;2024-03-08T08:17:10;5.60;99.90
44767;DHT22;30487;48.716;9.272;2024-03-08T08:19:36;5.70;99.90
44767;DHT22;30487;48.716;9.272;2024-03-08T08:22:02;5.80;99.90
44767;DHT22;30487;48.716;9.272;2024-03-08T08:24:28;5.80;99.90
44767;DHT22;30487;48.716;9.272;2024-03-08T08:26:53;5.80;99.90
44767;DHT22;30487;48.716;9.272;2024-03-08T08:29:19;5.80;99.90
44767;DHT22;30487;48.716;9.272;2024-03-08T08:31:46;5.80;99.90
44767;DHT22;30487;48.716;9.272;2024-03-08T08:34:12;5.90;99.90
44767;DHT22;30487;48.716;9.272;2024-03-08T08:36:39;5.90;99.90
44767;DHT22;30487;48.716;9.272;2024-03-08T08:39:05;5.90;99.90
44767;DHT22;30487;48.716;9.272;2024-03-08T08:41:37;5.90;99.90
44767;DHT22;30487;48.716;9.272;2024-03-08T08:44:03;6.00;99.90
44767;DHT22;30487;48.716;9.272;2024-03-08T08:46:28;6.00;99.90
44767;DHT22;30487;48.716;9.272;2024-03-08T08:48:54;6.10;99.90
44767;DHT22;30487;48.716;9.272;2024-03-08T08:51:20;6.10;99.90
44767;DHT22;30487;48.716;9.272;2024-03-08T08:53:46;6.10;99.90
44767;DHT22;30487;48.716;9.272;2024-03-08T08:56:13;6.20;99.90
44767;DHT22;30487;48.716;9.272;2024-03-08T08:58:42;6.20;99.90
44767;DHT22;30487;48.716;9.272;2024-03-08T09:01:10;6.20;99.90
44767;DHT22;30487;48.716;9.272;2024-03-08T09:03:37;6.20;99.90
44767;DHT22;30487;48.716;9.272;2024-03-08T09:06:04;6.20;99.90
44767;DHT22;30487;48.716;9.272;2024-03-08T09:08:29;6.30;99.90
44767;DHT22;30487;48.716;9.272;2024-03-08T09:10:55;6.30;99.90
44767;DHT22;30487;48.716;9.272;2024-03-08T09:13:21;6.30;99.90
44767;DHT22;30487;48.716;9.272;2024-03-08T09:15:46;6.30;99.90
44767;DHT22;30487;48.716;9.272;2024-03-08T09:18:12;6.30;99.90
44767;DHT22;30487;48.716;9.272;2024-03-08T09:20:38;6.30;99.90
44767;DHT22;30487;48.716;9.272;2024-03-08T09:23:03;6.30;99.90
44767;DHT22;30487;48.716;9.272;2024-03-08T09:25:29;6.40;99.90
44767;DHT22;30487;48.716;9.272;2024-03-08T09:27:55;6.40;99.90
44767;DHT22;30487;48.716;9.272;2024-03-08T09:30:21;6.50;99.90
44767;DHT22;30487;48.716;9.272;2024-03-08T09:32:47;6.50;99.90
44767;DHT22;30487;48.716;9.272;2024-03-08T09:35:12;6.50;99.90
44767;DHT22;30487;48.716;9.272;2024-03-08T09:37:38;6.60;99.90
44767;DHT22;30487;48.716;9.272;2024-03-08T09:40:04;6.70;99.90
44767;DHT22;30487;48.716;9.272;2024-03-08T09:42:35;6.80;99.90
44767;DHT22;30487;48.716;9.272;2024-03-08T09:45:05;6.80;99.90
44767;DHT22;30487;48.716;9.272;2024-03-08T09:47:34;6.80;99.90
44767;DHT22;30487;48.716;9.272;2024-03-08T09:50:08;6.90;99.90
44767;DHT22;30487;48.716;9.272;2024-03-08T09:52:36;7.00;99.90
44767;DHT22;30487;48.716;9.272;2024-03-08T09:55:07;7.00;99.90
44767;DHT22;30487;48.716;9.272;2024-03-08T09:57:33;7.10;99.90
44767;DHT22;30487;48.716;9.272;2024-03-08T09:59:59;7.10;99.90
44767;DHT22;30487;48.716;9.272;2024-03-08T10:02:25;7.20;99.90
44767;DHT22;30487;48.716;9.272;2024-03-08T10:04:51;7.30;99.90
44767;DHT22;30487;48.716;9.272;2024-03-08T10:07:18;7.30;99.90
44767;DHT22;30487;48.716;9.272;2024-03-08T10:09:44;7.30;99.90
44767;DHT22;30487;48.716;9.272;2024-03-08T10:12:18;7.40;99.90
44767;DHT22;30487;48.716;9.272;2024-03-08T10:14:45;7.40;99.90
44767;DHT22;30487;48.716;9.272;2024-03-08T10:17:12;7.50;99.90
44767;DHT22;30487;48.716;9.272;2024-03-08T10:19:37;7.50;99.90
44767;DHT22;30487;48.716;9.272;2024-03-08T10:22:04;7.60;99.90
44767;DHT22;30487;48.716;9.272;2024-03-08T10:24:30;7.70;99.90
44767;DHT22;30487;48.716;9.272;2024-03-08T10:27:00;7.70;99.90
44767;DHT22;30487;48.716;9.272;2024-03-08T10:29:27;7.80;99.90
44767;DHT22;30487;48.716;9.272;2024-03-08T10:31:54;8.00;99.90
44767;DHT22;30487;48.716;9.272;2024-03-08T10:34:21;8.10;99.90
44767;DHT22;30487;48.716;9.272;2024-03-08T10:36:50;8.10;99.90
44767;DHT22;30487;48.716;9.272;2024-03-08T10:39:22;8.20;99.90
44767;DHT22;30487;48.716;9.272;2024-03-08T10:42:11;8.20;99.90
44767;DHT22;30487;48.716;9.272;2024-03-08T10:44:56;8.30;99.90
44767;DHT22;30487;48.716;9.272;2024-03-08T10:47:30;8.50;99.90
44767;DHT22;30487;48.716;9.272;2024-03-08T10:50:18;8.70;99.90
44767;DHT22;30487;48.716;9.272;2024-03-08T10:52:51;8.80;99.90
44767;DHT22;30487;48.716;9.272;2024-03-08T10:55:18;8.90;99.90
44767;DHT22;30487;48.716;9.272;2024-03-08T10:57:46;9.00;99.90
44767;DHT22;30487;48.716;9.272;2024-03-08T11:00:13;9.20;99.90
44767;DHT22;30487;48.716;9.272;2024-03-08T11:02:43;9.40;99.90
44767;DHT22;30487;48.716;9.272;2024-03-08T11:05:38;9.50;99.90
44767;DHT22;30487;48.716;9.272;2024-03-08T11:08:24;9.50;99.90
44767;DHT22;30487;48.716;9.272;2024-03-08T11:10:50;9.70;99.90
44767;DHT22;30487;48.716;9.272;2024-03-08T11:13:36;10.00;99.90
44767;DHT22;30487;48.716;9.272;2024-03-08T11:16:02;10.70;99.90
44767;DHT22;30487;48.716;9.272;2024-03-08T11:18:33;11.10;99.90
44767;DHT22;30487;48.716;9.272;2024-03-08T11:21:02;11.10;99.90
44767;DHT22;30487;48.716;9.272;2024-03-08T11:23:32;11.40;99.10
44767;DHT22;30487;48.716;9.272;2024-03-08T11:25:59;11.60;98.70
44767;DHT22;30487;48.716;9.272;2024-03-08T11:28:25;11.90;98.40
44767;DHT22;30487;48.716;9.272;2024-03-08T11:33:30;13.70;96.80
44767;DHT22;30487;48.716;9.272;2024-03-08T11:38:45;15.20;92.30
44767;DHT22;30487;48.716;9.272;2024-03-08T11:41:14;15.10;91.70
44767;DHT22;30487;48.716;9.272;2024-03-08T11:43:40;14.90;91.40
44767;DHT22;30487;48.716;9.272;2024-03-08T11:46:14;15.20;91.00
44767;DHT22;30487;48.716;9.272;2024-03-08T11:48:41;16.80;90.00
44767;DHT22;30487;48.716;9.272;2024-03-08T11:51:11;17.30;86.40
44767;DHT22;30487;48.716;9.272;2024-03-08T11:53:37;17.40;83.70
44767;DHT22;30487;48.716;9.272;2024-03-08T11:56:13;17.40;82.60
44767;DHT22;30487;48.716;9.272;2024-03-08T11:58:40;18.00;80.60
44767;DHT22;30487;48.716;9.272;2024-03-08T12:01:07;19.30;76.90
44767;DHT22;30487;48.716;9.272;2024-03-08T12:03:34;19.00;75.50
44767;DHT22;30487;48.716;9.272;2024-03-08T12:06:00;18.60;75.40
44767;DHT22;30487;48.716;9.272;2024-03-08T12:08:27;19.40;74.40
44767;DHT22;30487;48.716;9.272;2024-03-08T12:10:55;20.50;71.90
44767;DHT22;30487;48.716;9.272;2024-03-08T12:13:30;21.10;69.80
44767;DHT22;30487;48.716;9.272;2024-03-08T12:16:00;21.20;68.40
44767;DHT22;30487;48.716;9.272;2024-03-08T12:18:29;22.00;66.60
44767;DHT22;30487;48.716;9.272;2024-03-08T12:21:12;22.30;64.30
44767;DHT22;30487;48.716;9.272;2024-03-08T12:23:39;22.20;64.20
44767;DHT22;30487;48.716;9.272;2024-03-08T12:26:15;21.90;63.10
44767;DHT22;30487;48.716;9.272;2024-03-08T12:28:42;21.20;64.30
44767;DHT22;30487;48.716;9.272;2024-03-08T12:31:11;21.40;64.10
44767;DHT22;30487;48.716;9.272;2024-03-08T12:33:50;21.80;63.20
44767;DHT22;30487;48.716;9.272;2024-03-08T12:36:16;22.40;62.10
44767;DHT22;30487;48.716;9.272;2024-03-08T12:38:49;22.90;61.30
44767;DHT22;30487;48.716;9.272;2024-03-08T12:41:19;23.40;60.60
44767;DHT22;30487;48.716;9.272;2024-03-08T12:43:45;24.10;59.10
44767;DHT22;30487;48.716;9.272;2024-03-08T12:46:15;24.50;58.20
44767;DHT22;30487;48.716;9.272;2024-03-08T12:48:41;23.80;57.50
44767;DHT22;30487;48.716;9.272;2024-03-08T12:51:12;23.30;58.40
44767;DHT22;30487;48.716;9.272;2024-03-08T12:53:38;23.40;58.20
44767;DHT22;30487;48.716;9.272;2024-03-08T12:56:06;23.80;57.30
44767;DHT22;30487;48.716;9.272;2024-03-08T12:58:37;24.20;56.70
44767;DHT22;30487;48.716;9.272;2024-03-08T13:01:03;24.30;56.80
44767;DHT22;30487;48.716;9.272;2024-03-08T13:03:35;24.50;55.80
44767;DHT22;30487;48.716;9.272;2024-03-08T13:06:05;24.90;55.40
44767;DHT22;30487;48.716;9.272;2024-03-08T13:08:37;25.20;54.90
44767;DHT22;30487;48.716;9.272;2024-03-08T13:11:06;25.20;54.10
44767;DHT22;30487;48.716;9.272;2024-03-08T13:13:32;25.20;54.10
44767;DHT22;30487;48.716;9.272;2024-03-08T13:16:01;25.40;54.30
44767;DHT22;30487;48.716;9.272;2024-03-08T13:18:27;25.10;53.90
44767;DHT22;30487;48.716;9.272;2024-03-08T13:20:54;24.60;54.20
44767;DHT22;30487;48.716;9.272;2024-03-08T13:23:20;24.90;53.80
44767;DHT22;30487;48.716;9.272;2024-03-08T13:25:45;24.90;53.40
44767;DHT22;30487;48.716;9.272;2024-03-08T13:28:13;25.10;53.40
44767;DHT22;30487;48.716;9.272;2024-03-08T13:30:39;25.20;53.00
44767;DHT22;30487;48.716;9.272;2024-03-08T13:33:04;25.10;52.70
44767;DHT22;30487;48.716;9.272;2024-03-08T13:35:31;25.20;52.60
44767;DHT22;30487;48.716;9.272;2024-03-08T13:37:57;25.10;52.20
44767;DHT22;30487;48.716;9.272;2024-03-08T13:40:23;25.20;52.50
44767;DHT22;30487;48.716;9.272;2024-03-08T13:42:49;25.00;52.50
44767;DHT22;30487;48.716;9.272;2024-03-08T13:45:15;24.90;52.40
44767;DHT22;30487;48.716;9.272;2024-03-08T13:47:48;24.70;52.40
44767;DHT22;30487;48.716;9.272;2024-03-08T13:50:14;24.60;53.10
44767;DHT22;30487;48.716;9.272;2024-03-08T13:52:50;24.50;53.20
44767;DHT22;30487;48.716;9.272;2024-03-08T13:55:17;24.50;52.90
44767;DHT22;30487;48.716;9.272;2024-03-08T13:57:43;24.30;53.10
44767;DHT22;30487;48.716;9.272;2024-03-08T14:00:11;24.40;52.90
44767;DHT22;30487;48.716;9.272;2024-03-08T14:02:38;24.40;52.60
44767;DHT22;30487;48.716;9.272;2024-03-08T14:05:07;24.00;53.10
44767;DHT22;30487;48.716;9.272;2024-03-08T14:07:37;24.10;53.00
44767;DHT22;30487;48.716;9.272;2024-03-08T14:10:03;23.90;52.90
44767;DHT22;30487;48.716;9.272;2024-03-08T14:12:29;23.80;53.20
44767;DHT22;30487;48.716;9.272;2024-03-08T14:14:55;23.50;53.50
44767;DHT22;30487;48.716;9.272;2024-03-08T14:17:25;23.40;53.20
44767;DHT22;30487;48.716;9.272;2024-03-08T14:19:52;23.50;53.40
44767;DHT22;30487;48.716;9.272;2024-03-08T14:22:18;23.40;53.20
44767;DHT22;30487;48.716;9.272;2024-03-08T14:24:44;23.30;53.30
44767;DHT22;30487;48.716;9.272;2024-03-08T14:27:10;22.80;53.40
44767;DHT22;30487;48.716;9.272;2024-03-08T14:29:37;22.60;53.70
44767;DHT22;30487;48.716;9.272;2024-03-08T14:32:04;22.40;54.00
44767;DHT22;30487;48.716;9.272;2024-03-08T14:34:32;22.10;54.30
44767;DHT22;30487;48.716;9.272;2024-03-08T14:36:59;21.90;54.50
44767;DHT22;30487;48.716;9.272;2024-03-08T14:39:26;21.80;54.80
44767;DHT22;30487;48.716;9.272;2024-03-08T14:41:55;21.80;54.90
44767;DHT22;30487;48.716;9.272;2024-03-08T14:44:21;21.60;55.50
44767;DHT22;30487;48.716;9.272;2024-03-08T14:46:47;21.40;55.70
44767;DHT22;30487;48.716;9.272;2024-03-08T14:49:13;21.40;55.70
44767;DHT22;30487;48.716;9.272;2024-03-08T14:51:39;21.20;55.90
44767;DHT22;30487;48.716;9.272;2024-03-08T14:54:05;21.00;56.30
44767;DHT22;30487;48.716;9.272;2024-03-08T14:56:32;21.00;56.40
44767;DHT22;30487;48.716;9.272;2024-03-08T14:58:58;20.90;56.40
44767;DHT22;30487;48.716;9.272;2024-03-08T15:01:25;20.50;56.70
44767;DHT22;30487;48.716;9.272;2024-03-08T15:03:57;20.40;57.10
44767;DHT22;30487;48.716;9.272;2024-03-08T15:06:28;20.30;57.40
44767;DHT22;30487;48.716;9.272;2024-03-08T15:08:56;20.20;57.90
44767;DHT22;30487;48.716;9.272;2024-03-08T15:11:23;20.10;58.10
44767;DHT22;30487;48.716;9.272;2024-03-08T15:13:50;19.90;58.70
44767;DHT22;30487;48.716;9.272;2024-03-08T15:16:19;19.80;59.10
44767;DHT22;30487;48.716;9.272;2024-03-08T15:18:48;19.70;59.30
44767;DHT22;30487;48.716;9.272;2024-03-08T15:21:16;19.60;59.30
44767;DHT22;30487;48.716;9.272;2024-03-08T15:23:45;19.50;59.50
44767;DHT22;30487;48.716;9.272;2024-03-08T15:26:20;19.40;59.70
44767;DHT22;30487;48.716;9.272;2024-03-08T15:28:45;19.40;59.60
44767;DHT22;30487;48.716;9.272;2024-03-08T15:31:12;19.20;59.90
44767;DHT22;30487;48.716;9.272;2024-03-08T15:33:40;19.10;59.50
44767;DHT22;30487;48.716;9.272;2024-03-08T15:36:17;19.00;60.30
44767;DHT22;30487;48.716;9.272;2024-03-08T15:38:43;18.80;60.40
44767;DHT22;30487;48.716;9.272;2024-03-08T15:41:14;18.70;60.60
44767;DHT22;30487;48.716;9.272;2024-03-08T15:43:40;18.50;60.80
44767;DHT22;30487;48.716;9.272;2024-03-08T15:46:07;18.40;60.80
44767;DHT22;30487;48.716;9.272;2024-03-08T15:48:33;18.20;61.70
44767;DHT22;30487;48.716;9.272;2024-03-08T15:51:01;18.00;61.60